Chester, New Jersey
Current Conditions -  °F | °C
As of 5:53 AM on Saturday 20 Dec 2014 (Local Time) from KSMQ Reporting Station
Overcast Overcast  
Wind Chill: 24°   Ceiling: 2800
Heat Index: 31°   Visibility: 10mi
Dew Point: 19°   Wind: 7mph
Humidity: 61%   Direction: 320°NW
Pressure: 30.24"   Gusts: NA
Location:  40.78°N, 74.7°W
Report Text: KSMQ 201053Z AUTO 32006KT 10SM OVC028 M01/M07 A3024 RMK AO2 SLP244 T10061072
Loading
Personal Weather Stations






























Interactive Weather Map New forecast layout! Learn more

10-Day Weather Forecast

Advertisements
Track Severe Weather on mobile